createdAt,value
2022-12-24T00:01:07.017Z,1.20
2022-12-24T00:03:35.499Z,1.23
2022-12-24T00:06:07.449Z,1.27
2022-12-24T00:08:35.259Z,1.42
2022-12-24T00:11:02.922Z,1.30
2022-12-24T00:13:30.391Z,1.42
2022-12-24T00:15:57.843Z,1.20
2022-12-24T00:18:25.329Z,0.90
2022-12-24T00:20:53.608Z,1.70
2022-12-24T00:23:21.496Z,1.00
2022-12-24T00:25:48.963Z,1.25
2022-12-24T00:28:17.676Z,1.13
2022-12-24T00:30:45.133Z,1.20
2022-12-24T00:33:12.917Z,1.55
2022-12-24T00:35:41.265Z,1.65
2022-12-24T00:38:09.335Z,1.40
2022-12-24T00:40:37.015Z,1.30
2022-12-24T00:43:04.524Z,1.42
2022-12-24T00:45:31.966Z,1.50
2022-12-24T00:47:59.424Z,1.23
2022-12-24T00:50:26.824Z,1.25
2022-12-24T00:52:54.407Z,1.60
2022-12-24T00:55:21.820Z,1.35
2022-12-24T00:57:49.426Z,1.70
2022-12-24T01:00:18.120Z,1.58
2022-12-24T01:02:45.999Z,1.35
2022-12-24T01:05:13.656Z,1.90
2022-12-24T01:07:44.457Z,1.80
2022-12-24T01:10:14.178Z,2.13
2022-12-24T01:12:42.436Z,1.98
2022-12-24T01:15:11.511Z,2.53
2022-12-24T01:17:39.432Z,2.03
2022-12-24T01:20:11.401Z,1.92
2022-12-24T01:22:38.925Z,2.05
2022-12-24T01:25:06.611Z,1.67
2022-12-24T01:27:34.160Z,1.60
2022-12-24T01:30:01.696Z,2.30
2022-12-24T01:32:29.267Z,1.95
2022-12-24T01:34:56.682Z,1.85
2022-12-24T01:37:24.210Z,1.73
2022-12-24T01:39:51.917Z,1.52
2022-12-24T01:42:40.618Z,1.75
2022-12-24T01:45:39.885Z,1.98
2022-12-24T01:48:29.914Z,2.20
2022-12-24T01:51:29.439Z,1.50
2022-12-24T01:54:05.887Z,1.48
2022-12-24T01:56:36.273Z,1.85
2022-12-24T01:59:08.511Z,1.77
2022-12-24T02:01:36.507Z,2.05
2022-12-24T02:04:28.821Z,1.65
2022-12-24T02:06:56.472Z,1.70
2022-12-24T02:09:23.987Z,1.63
2022-12-24T02:11:52.027Z,2.17
2022-12-24T02:14:19.871Z,2.00
2022-12-24T02:16:59.665Z,1.40
2022-12-24T02:20:03.667Z,2.42
2022-12-24T02:22:55.846Z,1.50
2022-12-24T02:25:57.531Z,1.23
2022-12-24T02:28:43.551Z,1.65
2022-12-24T02:31:51.599Z,1.40
2022-12-24T02:34:52.217Z,1.33
2022-12-24T02:37:26.340Z,1.40
2022-12-24T02:40:16.827Z,1.95
2022-12-24T02:42:54.135Z,1.52
2022-12-24T02:45:26.395Z,1.50
2022-12-24T02:47:56.276Z,1.23
2022-12-24T02:50:24.843Z,1.35
2022-12-24T02:52:53.040Z,1.33
2022-12-24T02:55:30.876Z,1.33
2022-12-24T02:57:58.526Z,1.40
2022-12-24T03:00:27.456Z,1.55
2022-12-24T03:03:33.709Z,1.58
2022-12-24T03:06:25.127Z,1.30
2022-12-24T03:08:59.454Z,1.55
2022-12-24T03:11:27.065Z,1.38
2022-12-24T03:13:57.828Z,1.30
2022-12-24T03:16:28.255Z,1.40
2022-12-24T03:18:59.090Z,1.77
2022-12-24T03:21:31.589Z,1.45
2022-12-24T03:23:59.596Z,2.40
2022-12-24T03:26:30.060Z,1.60
2022-12-24T03:28:57.588Z,1.40
2022-12-24T03:31:25.281Z,1.20
2022-12-24T03:33:52.866Z,1.00
2022-12-24T03:36:20.260Z,1.70
2022-12-24T03:38:47.817Z,1.48
2022-12-24T03:41:15.220Z,1.33
2022-12-24T03:43:42.725Z,1.27
2022-12-24T03:46:10.202Z,1.40
2022-12-24T03:48:37.793Z,1.30
2022-12-24T03:51:05.490Z,1.50
2022-12-24T03:53:33.010Z,1.30
2022-12-24T03:56:00.559Z,1.40
2022-12-24T03:58:28.088Z,1.30
2022-12-24T04:00:56.030Z,1.17
2022-12-24T04:03:23.563Z,1.40
2022-12-24T04:06:05.357Z,1.25
2022-12-24T04:08:33.691Z,1.70
2022-12-24T04:11:06.198Z,1.38
2022-12-24T04:13:37.397Z,1.10
2022-12-24T04:16:10.423Z,1.48
2022-12-24T04:18:39.115Z,1.38
2022-12-24T04:21:07.462Z,1.50
2022-12-24T04:23:36.407Z,1.13
2022-12-24T04:26:06.448Z,1.33
2022-12-24T04:28:35.153Z,1.40
2022-12-24T04:31:05.008Z,1.48
2022-12-24T04:33:32.602Z,1.40
2022-12-24T04:36:02.723Z,1.70
2022-12-24T04:38:30.901Z,1.58
2022-12-24T04:41:00.484Z,1.73
2022-12-24T04:43:29.474Z,1.58
2022-12-24T04:46:03.936Z,1.50
2022-12-24T04:48:31.463Z,1.70
2022-12-24T04:51:02.206Z,1.60
2022-12-24T04:53:30.474Z,2.60
2022-12-24T04:55:58.653Z,1.70
2022-12-24T04:58:26.339Z,1.88
2022-12-24T05:00:54.615Z,1.70
2022-12-24T05:03:22.175Z,1.67
2022-12-24T05:05:49.630Z,1.60
2022-12-24T05:08:17.130Z,2.28
2022-12-24T05:10:44.613Z,1.80
2022-12-24T05:13:12.083Z,2.00
2022-12-24T05:15:39.591Z,2.17
2022-12-24T05:18:59.834Z,1.75
2022-12-24T05:21:27.501Z,1.95
2022-12-24T05:24:13.987Z,2.05
2022-12-24T05:26:55.012Z,2.10
2022-12-24T05:29:23.106Z,1.83
2022-12-24T05:31:51.017Z,1.85
2022-12-24T05:34:18.728Z,1.77
2022-12-24T05:36:46.305Z,1.45
2022-12-24T05:39:17.092Z,1.55
2022-12-24T05:41:45.992Z,2.05
2022-12-24T05:44:14.669Z,2.08
2022-12-24T05:46:42.826Z,2.13
2022-12-24T05:49:10.537Z,2.00
2022-12-24T05:51:38.166Z,2.22
2022-12-24T05:54:06.101Z,1.65
2022-12-24T05:56:33.956Z,2.13
2022-12-24T05:59:01.745Z,2.10
2022-12-24T06:01:29.753Z,2.03
2022-12-24T06:03:58.257Z,1.92
2022-12-24T06:06:28.032Z,2.15
2022-12-24T06:08:57.074Z,1.77
2022-12-24T06:11:28.352Z,1.80
2022-12-24T06:13:56.088Z,2.30
2022-12-24T06:16:25.993Z,2.00
2022-12-24T06:18:54.491Z,2.38
2022-12-24T06:21:22.255Z,1.90
2022-12-24T06:23:49.937Z,2.53
2022-12-24T06:26:19.667Z,1.98
2022-12-24T06:28:49.042Z,1.80
2022-12-24T06:31:19.778Z,1.50
2022-12-24T06:33:48.871Z,1.67
2022-12-24T06:36:22.084Z,1.83
2022-12-24T06:38:50.228Z,2.42
2022-12-24T06:41:18.778Z,2.20
2022-12-24T06:43:47.809Z,1.52
2022-12-24T06:46:16.605Z,2.15
2022-12-24T06:48:45.376Z,1.85
2022-12-24T06:51:14.416Z,2.03
2022-12-24T06:53:42.218Z,1.50
2022-12-24T06:56:12.508Z,2.40
2022-12-24T06:58:40.982Z,1.90
2022-12-24T07:01:11.092Z,2.08
2022-12-24T07:03:39.082Z,2.15
2022-12-24T07:06:07.466Z,2.40
2022-12-24T07:08:36.486Z,2.08
2022-12-24T07:11:04.860Z,2.30
2022-12-24T07:13:34.499Z,1.95
2022-12-24T07:16:04.115Z,2.25
2022-12-24T07:18:32.212Z,1.83
2022-12-24T07:21:00.127Z,2.47
2022-12-24T07:23:27.658Z,1.67
2022-12-24T07:25:55.360Z,2.38
2022-12-24T07:28:27.922Z,1.90
2022-12-24T07:30:57.324Z,2.10
2022-12-24T07:33:26.183Z,2.22
2022-12-24T07:36:04.365Z,2.05
2022-12-24T07:38:32.722Z,2.25
2022-12-24T07:41:00.514Z,2.20
2022-12-24T07:43:28.548Z,2.20
2022-12-24T07:45:58.180Z,2.28
2022-12-24T07:48:28.174Z,2.08
2022-12-24T07:50:56.744Z,3.28
2022-12-24T07:53:25.562Z,1.60
2022-12-24T07:55:53.327Z,2.08
2022-12-24T07:58:21.455Z,2.55
2022-12-24T08:00:48.989Z,2.10
2022-12-24T08:03:22.791Z,2.25
2022-12-24T08:05:52.741Z,2.22
2022-12-24T08:08:20.779Z,2.25
2022-12-24T08:10:48.635Z,1.95
2022-12-24T08:13:16.722Z,1.80
2022-12-24T08:15:45.700Z,2.20
2022-12-24T08:18:13.195Z,1.45
2022-12-24T08:20:41.812Z,1.30
2022-12-24T08:23:09.706Z,1.48
2022-12-24T08:25:37.533Z,1.30
2022-12-24T08:28:05.887Z,2.10
2022-12-24T08:30:33.789Z,1.40
2022-12-24T08:33:01.599Z,2.10
2022-12-24T08:35:29.294Z,2.30
2022-12-24T08:37:57.317Z,2.88
2022-12-24T08:40:24.966Z,1.88
2022-12-24T08:42:52.883Z,2.40
2022-12-24T08:45:20.929Z,2.58
2022-12-24T08:47:48.461Z,2.30
2022-12-24T08:50:15.958Z,2.22
2022-12-24T08:52:43.597Z,2.35
2022-12-24T08:55:11.060Z,2.83
2022-12-24T08:57:38.951Z,2.25
2022-12-24T09:00:08.186Z,2.25
2022-12-24T09:02:36.106Z,2.58
2022-12-24T09:05:04.068Z,2.25
2022-12-24T09:07:31.644Z,2.15
2022-12-24T09:09:59.125Z,2.75
2022-12-24T09:12:26.652Z,2.63
2022-12-24T09:14:59.510Z,2.55
2022-12-24T09:17:30.603Z,2.25
2022-12-24T09:19:58.325Z,2.30
2022-12-24T09:22:25.969Z,2.00
2022-12-24T09:24:56.592Z,2.33
2022-12-24T09:27:24.188Z,2.15
2022-12-24T09:29:51.653Z,2.38
2022-12-24T09:32:19.377Z,2.17
2022-12-24T09:34:46.959Z,2.50
2022-12-24T09:37:14.506Z,1.98
2022-12-24T09:39:41.994Z,2.40
2022-12-24T09:42:33.533Z,2.45
2022-12-24T09:45:19.947Z,2.17
2022-12-24T09:47:53.706Z,2.15
2022-12-24T09:50:53.187Z,2.35
2022-12-24T09:54:00.281Z,2.70
2022-12-24T09:56:33.718Z,2.10
2022-12-24T09:59:04.106Z,2.53
2022-12-24T10:01:34.556Z,2.92
2022-12-24T10:04:11.902Z,2.42
2022-12-24T10:06:45.088Z,2.50
2022-12-24T10:09:33.286Z,2.65
2022-12-24T10:12:08.445Z,2.92
2022-12-24T10:14:54.137Z,2.35
2022-12-24T10:17:36.010Z,2.67
2022-12-24T10:20:25.215Z,2.92
2022-12-24T10:23:35.505Z,3.20
2022-12-24T10:26:24.351Z,2.45
2022-12-24T10:29:23.760Z,3.17
2022-12-24T10:31:57.515Z,2.90
2022-12-24T10:34:31.755Z,3.45
2022-12-24T10:37:03.098Z,3.10
2022-12-24T10:39:30.904Z,2.55
2022-12-24T10:42:00.839Z,2.63
2022-12-24T10:44:32.664Z,2.88
2022-12-24T10:47:00.213Z,2.95
2022-12-24T10:49:38.285Z,2.40
2022-12-24T10:52:11.096Z,2.58
2022-12-24T10:55:00.128Z,2.60
2022-12-24T10:57:27.826Z,2.60
2022-12-24T10:59:57.031Z,2.10
2022-12-24T11:02:39.097Z,2.40
2022-12-24T11:05:34.668Z,1.83
2022-12-24T11:08:12.871Z,3.80
2022-12-24T11:10:54.191Z,2.47
2022-12-24T11:13:39.882Z,2.70
2022-12-24T11:16:25.252Z,4.30
2022-12-24T11:19:02.494Z,2.58
2022-12-24T11:21:36.733Z,3.13
2022-12-24T11:24:13.652Z,2.15
2022-12-24T11:26:44.589Z,1.90
2022-12-24T11:29:15.050Z,2.05
2022-12-24T11:31:44.931Z,1.67
2022-12-24T11:34:33.026Z,2.22
2022-12-24T11:37:21.017Z,2.00
2022-12-24T11:40:01.681Z,2.03
2022-12-24T11:42:37.173Z,1.85
2022-12-24T11:45:18.053Z,1.88
2022-12-24T11:47:46.389Z,1.88
2022-12-24T11:50:33.159Z,2.70
2022-12-24T11:53:03.566Z,2.50
2022-12-24T11:55:50.788Z,1.75
2022-12-24T11:58:42.786Z,1.90
2022-12-24T12:01:17.680Z,1.75
2022-12-24T12:04:13.909Z,1.75
2022-12-24T12:06:47.287Z,1.85
2022-12-24T12:09:29.249Z,1.65
2022-12-24T12:12:07.700Z,2.08
2022-12-24T12:14:48.394Z,1.65
2022-12-24T12:17:41.617Z,2.20
2022-12-24T12:20:12.277Z,1.58
2022-12-24T12:22:49.098Z,1.83
2022-12-24T12:25:25.825Z,1.95
2022-12-24T12:27:56.359Z,1.95
2022-12-24T12:30:25.800Z,1.55
2022-12-24T12:33:14.351Z,1.73
2022-12-24T12:35:44.345Z,2.28
2022-12-24T12:38:17.298Z,2.33
2022-12-24T12:41:09.518Z,2.13
2022-12-24T12:43:57.869Z,2.22
2022-12-24T12:46:48.651Z,2.20
2022-12-24T12:49:53.667Z,2.20
2022-12-24T12:52:56.349Z,2.00
2022-12-24T12:55:38.652Z,1.75
2022-12-24T12:58:18.795Z,1.90
2022-12-24T13:00:49.717Z,1.73
2022-12-24T13:03:51.797Z,1.35
2022-12-24T13:06:19.225Z,1.80
2022-12-24T13:08:58.612Z,1.70
2022-12-24T13:11:44.258Z,1.95
2022-12-24T13:14:48.788Z,1.90
2022-12-24T13:17:28.357Z,1.60
2022-12-24T13:20:09.040Z,2.00
2022-12-24T13:22:36.789Z,1.48
2022-12-24T13:25:04.814Z,1.58
2022-12-24T13:27:34.827Z,2.10
2022-12-24T13:30:24.110Z,1.40
2022-12-24T13:32:54.614Z,2.15
2022-12-24T13:35:22.083Z,1.52
2022-12-24T13:37:50.643Z,2.50
2022-12-24T13:40:25.282Z,1.83
2022-12-24T13:43:01.968Z,1.83
2022-12-24T13:45:29.873Z,2.20
2022-12-24T13:48:06.264Z,2.42
2022-12-24T13:50:45.884Z,1.98
2022-12-24T13:53:34.193Z,2.33
2022-12-24T13:56:13.450Z,3.67
2022-12-24T13:58:45.735Z,4.60
2022-12-24T14:01:20.142Z,6.28
2022-12-24T14:03:49.143Z,3.05
2022-12-24T14:06:26.466Z,3.22
2022-12-24T14:09:14.228Z,2.53
2022-12-24T14:11:54.016Z,2.90
2022-12-24T14:14:37.999Z,2.40
2022-12-24T14:17:25.977Z,1.92
2022-12-24T14:19:57.471Z,1.75
2022-12-24T14:22:30.662Z,2.05
2022-12-24T14:25:01.570Z,2.30
2022-12-24T14:28:05.555Z,3.55
2022-12-24T14:30:33.377Z,1.77
2022-12-24T14:33:00.860Z,1.90
2022-12-24T14:35:35.645Z,2.00
2022-12-24T14:38:21.527Z,2.88
2022-12-24T14:41:15.401Z,2.60
2022-12-24T14:44:10.457Z,4.72
2022-12-24T14:47:01.837Z,2.25
2022-12-24T14:49:35.138Z,4.80
2022-12-24T14:52:18.437Z,13.38
2022-12-24T14:54:56.223Z,7.90
2022-12-24T14:57:26.464Z,2.67
2022-12-24T14:59:56.536Z,4.70
2022-12-24T15:02:50.137Z,8.93
2022-12-24T15:05:20.531Z,2.27
2022-12-24T15:07:56.587Z,1.88
2022-12-24T15:10:34.460Z,5.85
2022-12-24T15:13:06.359Z,5.47
2022-12-24T15:15:34.670Z,12.15
2022-12-24T15:18:04.690Z,6.70
2022-12-24T15:20:32.736Z,2.95
2022-12-24T15:23:00.368Z,8.10
2022-12-24T15:25:33.436Z,2.70
2022-12-24T15:28:00.940Z,1.83
2022-12-24T15:30:31.391Z,1.92
2022-12-24T15:32:59.139Z,2.55
2022-12-24T15:35:56.876Z,2.20
2022-12-24T15:38:31.918Z,2.20
2022-12-24T15:41:03.252Z,2.30
2022-12-24T15:43:31.909Z,1.95
2022-12-24T15:46:00.583Z,2.88
2022-12-24T15:48:31.505Z,4.03
2022-12-24T15:51:02.835Z,2.80
2022-12-24T15:53:43.926Z,2.17
2022-12-24T15:56:31.648Z,2.47
2022-12-24T15:59:38.353Z,2.70
2022-12-24T16:02:43.686Z,2.30
2022-12-24T16:05:26.350Z,2.58
2022-12-24T16:08:09.759Z,2.63
2022-12-24T16:10:44.310Z,2.20
2022-12-24T16:13:25.437Z,1.95
2022-12-24T16:15:57.428Z,2.42
2022-12-24T16:18:55.962Z,2.50
2022-12-24T16:21:35.632Z,2.40
2022-12-24T16:24:15.089Z,2.00
2022-12-24T16:26:43.860Z,2.50
2022-12-24T16:29:12.130Z,2.30
2022-12-24T16:31:46.117Z,2.30
2022-12-24T16:34:15.733Z,2.65
2022-12-24T16:36:45.254Z,2.20
2022-12-24T16:39:25.179Z,2.22
2022-12-24T16:42:11.701Z,2.42
2022-12-24T16:44:39.874Z,2.17
2022-12-24T16:47:14.694Z,1.88
2022-12-24T16:49:42.262Z,2.15
2022-12-24T16:52:17.967Z,1.85
2022-12-24T16:54:45.493Z,1.42
2022-12-24T16:57:13.240Z,1.50
2022-12-24T16:59:40.819Z,2.20
2022-12-24T17:02:15.038Z,2.00
2022-12-24T17:04:43.650Z,1.80
2022-12-24T17:07:17.204Z,1.95
2022-12-24T17:09:44.844Z,2.03
2022-12-24T17:12:12.373Z,1.65
2022-12-24T17:14:40.499Z,2.00
2022-12-24T17:17:11.111Z,1.88
2022-12-24T17:19:38.599Z,1.55
2022-12-24T17:22:06.023Z,1.70
2022-12-24T17:24:33.575Z,1.80
2022-12-24T17:27:01.013Z,1.55
2022-12-24T17:29:28.658Z,2.00
2022-12-24T17:31:56.061Z,1.83
2022-12-24T17:34:23.665Z,1.80
2022-12-24T17:36:51.191Z,2.20
2022-12-24T17:39:25.663Z,2.22
2022-12-24T17:41:55.198Z,2.22
2022-12-24T17:44:23.350Z,2.50
2022-12-24T17:46:51.104Z,2.72
2022-12-24T17:49:18.701Z,2.38
2022-12-24T17:51:46.984Z,1.88
2022-12-24T17:54:14.456Z,2.15
2022-12-24T17:56:42.183Z,2.70
2022-12-24T17:59:09.660Z,2.55
2022-12-24T18:01:37.324Z,2.90
2022-12-24T18:04:06.205Z,2.63
2022-12-24T18:06:34.376Z,2.38
2022-12-24T18:09:01.867Z,2.88
2022-12-24T18:11:33.134Z,2.30
2022-12-24T18:14:02.556Z,2.38
2022-12-24T18:16:33.711Z,2.45
2022-12-24T18:19:03.676Z,2.38
2022-12-24T18:21:32.968Z,2.13
2022-12-24T18:24:00.671Z,2.83
2022-12-24T18:26:30.067Z,2.45
2022-12-24T18:28:58.935Z,2.60
2022-12-24T18:31:27.301Z,2.58
2022-12-24T18:33:56.085Z,2.33
2022-12-24T18:36:24.344Z,2.72
2022-12-24T18:38:52.375Z,2.75
2022-12-24T18:41:25.799Z,2.28
2022-12-24T18:43:54.493Z,2.70
2022-12-24T18:46:24.377Z,2.55
2022-12-24T18:48:53.146Z,2.40
2022-12-24T18:51:22.520Z,2.50
2022-12-24T18:53:50.541Z,2.40
2022-12-24T18:56:23.655Z,2.03
2022-12-24T18:58:56.165Z,1.83
2022-12-24T19:01:26.806Z,3.25
2022-12-24T19:03:54.861Z,2.53
2022-12-24T19:06:23.537Z,2.30
2022-12-24T19:09:00.878Z,2.60
2022-12-24T19:11:33.801Z,2.50
2022-12-24T19:14:02.964Z,2.22
2022-12-24T19:16:33.417Z,3.28
2022-12-24T19:19:02.503Z,2.33
2022-12-24T19:21:29.928Z,2.33
2022-12-24T19:23:57.493Z,2.35
2022-12-24T19:26:25.346Z,2.08
2022-12-24T19:28:54.325Z,2.28
2022-12-24T19:31:24.898Z,2.28
2022-12-24T19:33:55.085Z,2.72
2022-12-24T19:36:26.110Z,2.53
2022-12-24T19:38:54.187Z,2.40
2022-12-24T19:41:25.291Z,2.22
2022-12-24T19:43:56.151Z,2.65
2022-12-24T19:46:26.374Z,2.53
2022-12-24T19:48:57.515Z,2.13
2022-12-24T19:51:26.744Z,2.65
2022-12-24T19:53:55.605Z,2.42
2022-12-24T19:56:25.099Z,2.63
2022-12-24T19:58:52.980Z,2.83
2022-12-24T20:01:23.710Z,2.08
2022-12-24T20:03:52.646Z,2.40
2022-12-24T20:06:23.056Z,2.80
2022-12-24T20:08:50.706Z,2.45
2022-12-24T20:11:20.777Z,2.47
2022-12-24T20:13:48.448Z,2.58
2022-12-24T20:16:21.116Z,2.70
2022-12-24T20:18:56.857Z,2.63
2022-12-24T20:21:25.303Z,2.55
2022-12-24T20:23:53.090Z,2.13
2022-12-24T20:26:22.700Z,2.35
2022-12-24T20:28:51.517Z,2.58
2022-12-24T20:31:22.501Z,2.65
2022-12-24T20:33:50.624Z,2.35
2022-12-24T20:36:22.025Z,2.83
2022-12-24T20:38:50.001Z,2.35
2022-12-24T20:41:20.079Z,2.58
2022-12-24T20:43:49.098Z,2.47
2022-12-24T20:46:18.729Z,2.58
2022-12-24T20:48:46.598Z,2.70
2022-12-24T20:51:24.416Z,2.92
2022-12-24T20:53:57.898Z,3.17
2022-12-24T20:56:26.101Z,2.42
2022-12-24T20:58:53.878Z,3.33
2022-12-24T21:01:24.876Z,2.55
2022-12-24T21:03:54.320Z,2.67
2022-12-24T21:06:23.529Z,2.40
2022-12-24T21:08:52.277Z,2.50
2022-12-24T21:11:39.883Z,2.88
2022-12-24T21:14:07.860Z,2.47
2022-12-24T21:16:36.673Z,2.78
2022-12-24T21:19:05.319Z,3.50
2022-12-24T21:21:33.102Z,2.45
2022-12-24T21:24:01.059Z,4.05
2022-12-24T21:26:28.549Z,3.15
2022-12-24T21:28:56.200Z,2.90
2022-12-24T21:31:23.903Z,3.55
2022-12-24T21:33:51.497Z,3.45
2022-12-24T21:36:18.991Z,3.40
2022-12-24T21:38:47.226Z,3.20
2022-12-24T21:41:18.320Z,3.15
2022-12-24T21:43:46.375Z,2.97
2022-12-24T21:46:18.772Z,3.45
2022-12-24T21:49:05.047Z,2.88
2022-12-24T21:51:33.294Z,3.17
2022-12-24T21:54:19.446Z,3.03
2022-12-24T21:57:05.720Z,2.83
2022-12-24T21:59:33.343Z,3.17
2022-12-24T22:02:01.363Z,2.58
2022-12-24T22:04:31.030Z,3.47
2022-12-24T22:07:18.073Z,3.35
2022-12-24T22:10:04.241Z,3.53
2022-12-24T22:12:33.569Z,3.28
2022-12-24T22:15:01.271Z,2.60
2022-12-24T22:17:29.089Z,3.05
2022-12-24T22:19:56.838Z,3.60
2022-12-24T22:22:25.583Z,2.97
2022-12-24T22:24:53.139Z,3.53
2022-12-24T22:27:20.806Z,3.42
2022-12-24T22:29:48.511Z,3.00
2022-12-24T22:32:16.048Z,3.42
2022-12-24T22:34:43.586Z,2.90
2022-12-24T22:37:11.161Z,3.28
2022-12-24T22:39:39.301Z,3.22
2022-12-24T22:42:07.015Z,3.33
2022-12-24T22:44:34.537Z,2.92
2022-12-24T22:47:02.134Z,3.28
2022-12-24T22:49:29.639Z,3.22
2022-12-24T22:51:58.306Z,2.90
2022-12-24T22:54:26.059Z,2.97
2022-12-24T22:56:53.628Z,3.00
2022-12-24T22:59:21.151Z,3.00
2022-12-24T23:01:49.522Z,2.67
2022-12-24T23:04:17.250Z,3.28
2022-12-24T23:06:44.880Z,3.55
2022-12-24T23:09:15.938Z,3.58
2022-12-24T23:11:44.857Z,3.42
2022-12-24T23:14:36.309Z,2.80
2022-12-24T23:17:04.681Z,3.30
2022-12-24T23:19:33.761Z,3.67
2022-12-24T23:22:02.983Z,4.22
2022-12-24T23:24:31.442Z,3.65
2022-12-24T23:27:03.455Z,2.85
2022-12-24T23:29:32.547Z,3.15
2022-12-24T23:32:00.603Z,3.33
2022-12-24T23:34:28.130Z,2.90
2022-12-24T23:36:55.579Z,3.40
2022-12-24T23:39:23.249Z,3.35
2022-12-24T23:41:50.711Z,3.22
2022-12-24T23:44:18.312Z,3.13
2022-12-24T23:46:45.817Z,3.72
2022-12-24T23:49:14.791Z,3.20
2022-12-24T23:51:42.338Z,2.75
2022-12-24T23:54:09.957Z,3.45
2022-12-24T23:56:37.842Z,3.08
2022-12-24T23:59:05.374Z,2.97
